Terminal Aerodrome Forecast
Issued by NWS

Home | Current Version | Previous Version | Text Only | Print | Product List | Glossary On
Versions: 1 2 3 4 5 6 7 8 9 10 11 12 13 14 15 16 17 18 19 20 21
000
FTUS45 KBOU 242338
TAFAPA
TAF
KAPA 242338Z 2500/2524 02009KT P6SM FEW080 BKN100
     FM250200 31007KT P6SM FEW080 SCT120
     FM250500 22008KT P6SM SKC
     FM251700 16007KT P6SM FEW080 SCT220
     FM252100 12009KT P6SM SCT080 SCT140=

USA.gov is the U.S. government's official web portal to all federal, state and local government web resources and services.